UKDE/OZH METAR and TAF weather

Enter ICAO airport designator
Station Type Date Time Source
UKDE METAR 2019/02/20 07:00 UTC NOAA

UKDE 200700Z 17004MPS 9999 BKN027 M00/M02 Q1018 R02R/090070 NOSIG


Station Type Date Time Source
UKDE Decoded METAR 2019/02/20 07:00 UTC NOAA

Zaporizhzhia / Mokraya, Ukraine (UKDE) 47-52-02N 035-18-59E
Feb 20, 2019 - 02:00 AM EST / 2019.02.20 0700 UTC
Wind: from the S (170 degrees) at 9 MPH (8 KT):0
Visibility: greater than 7 mile(s):0
Sky conditions: mostly cloudy
Temperature: 32 F (0 C)
Windchill: 24 F (-4 C):1
Dew Point: 28 F (-2 C)
Relative Humidity: 86%
Pressure (altimeter): 30.06 in. Hg (1018 hPa)
ob: UKDE 200700Z 17004MPS 9999 BKN027 M00/M02 Q1018 R02R/090070 NOSIG
cycle: 7

Station Type Date Time Source
UKDE TAF 2018/07/21 03:48 UTC NOAA

TAF
AMD TAF
AMD UKDE 210346Z 2103/2115 24003MPS 9999 SCT033CB TX28/2112Z TN20/2103Z
TEMPO 2103/2105 VRB01MPS
TEMPO 2108/2112 -SHRA BKN020CB


Example: see airport list